»·PEaware :: N130F KLGF-KSBA

N130F :: KLGF-KSBA

FLIGHT INFORMATION

Flight Status: Arrived
Operator: Privately registered:
United States
More flights under this callsign
Pilot: David J. (24489)
Aircraft: PILATUS PC-12 EAGLE
(PC12)
More flights by this aircraft type
Origin: KLGF Laguna AAF
United States
Destination: KSBA Santa Barbara Mun
United States
More flights between these airports :: More routes between these airports
Route: +BZA V458 SXC V208 VTU VTU282 KWANG
File this flight plan on PilotEdge
Remarks: RMK / SIMBRIEF
Altitude:
(Current/Filed)
22,000ft
Speed:
(Current/Filed)
276kts
Departed: 11-Jan-20 11:39 AM
Arrived: 11-Jan-20 01:14 PM
Distance/Time
Traveled:
288nm/1:35
Distance/Time
To Go:
Arrived

Flight Plot

Page will automatically refresh every two minutes.


Map Options




Map Legend


Flown Route
Filed Route
Departure Airport
Arrival Airport
Navaid (VOR, NDB)
Fix

Horizontal Profiles

Position Reports

Time Latitude Longitude Heading Altitude Ground
Speed
11-Jan-20 10:42 32.866136 -114.397058 100 427ft 0kts
11-Jan-20 10:43 32.866136 -114.397058 100 427ft 0kts
11-Jan-20 10:44 32.866136 -114.397058 100 427ft 0kts
11-Jan-20 10:45 32.866136 -114.397058 100 427ft 0kts
11-Jan-20 10:46 32.866136 -114.397058 100 427ft 0kts
11-Jan-20 10:47 32.866136 -114.397057 100 427ft 0kts
11-Jan-20 10:48 32.866136 -114.397057 100 427ft 0kts
11-Jan-20 10:49 32.866136 -114.397057 100 427ft 0kts
11-Jan-20 10:50 32.866136 -114.397057 100 427ft 0kts
11-Jan-20 10:51 32.866136 -114.397057 100 427ft 0kts
11-Jan-20 10:52 32.866136 -114.397057 100 427ft 0kts
11-Jan-20 10:53 32.866136 -114.397057 100 427ft 0kts
11-Jan-20 10:54 32.866136 -114.397057 100 427ft 0kts
11-Jan-20 10:55 32.866136 -114.397057 100 427ft 0kts
11-Jan-20 10:56 32.866136 -114.397057 100 427ft 0kts
11-Jan-20 10:57 32.866136 -114.397057 100 427ft 0kts
11-Jan-20 10:58 32.866136 -114.397057 100 427ft 0kts
11-Jan-20 10:59 32.866136 -114.397057 100 427ft 0kts
11-Jan-20 11:00 32.866136 -114.397057 100 427ft 0kts
11-Jan-20 11:01 32.866136 -114.397057 100 427ft 0kts
11-Jan-20 11:02 32.866136 -114.397057 100 427ft 0kts
11-Jan-20 11:03 32.866136 -114.397057 100 427ft 0kts
11-Jan-20 11:04 32.866136 -114.397057 100 427ft 0kts
11-Jan-20 11:05 32.866136 -114.397057 100 427ft 0kts
11-Jan-20 11:06 32.866136 -114.397057 100 427ft 0kts
11-Jan-20 11:07 32.866136 -114.397057 100 427ft 0kts
11-Jan-20 11:08 32.866136 -114.397057 100 427ft 0kts
11-Jan-20 11:09 32.866136 -114.397057 100 427ft 0kts
11-Jan-20 11:10 32.866136 -114.397057 100 427ft 0kts
11-Jan-20 11:11 32.866136 -114.397057 100 427ft 0kts
11-Jan-20 11:12 32.866136 -114.397057 100 427ft 0kts
11-Jan-20 11:13 32.866136 -114.397057 100 427ft 0kts
11-Jan-20 11:14 32.866136 -114.397057 100 427ft 0kts
11-Jan-20 11:15 32.866136 -114.397057 100 427ft 0kts
11-Jan-20 11:16 32.866136 -114.397057 100 427ft 0kts
11-Jan-20 11:17 32.866136 -114.397057 100 427ft 0kts
11-Jan-20 11:18 32.866136 -114.397057 100 427ft 0kts
11-Jan-20 11:20 32.866136 -114.397057 100 427ft 0kts
11-Jan-20 11:21 32.866136 -114.397057 100 427ft 0kts
11-Jan-20 11:22 32.866136 -114.397057 100 427ft 0kts
11-Jan-20 11:23 32.866136 -114.397057 100 427ft 0kts
11-Jan-20 11:24 32.866136 -114.397057 100 427ft 0kts
11-Jan-20 11:25 32.866136 -114.397057 100 427ft 0kts
11-Jan-20 11:26 32.866136 -114.397057 100 427ft 0kts
11-Jan-20 11:27 32.866136 -114.397057 100 427ft 0kts
11-Jan-20 11:28 32.866136 -114.397057 100 427ft 0kts
11-Jan-20 11:29 32.866136 -114.397057 100 427ft 0kts
11-Jan-20 11:30 32.866136 -114.397057 100 427ft 0kts
11-Jan-20 11:31 32.866136 -114.397057 100 427ft 0kts
11-Jan-20 11:32 32.866136 -114.397057 100 427ft 0kts
11-Jan-20 11:33 32.866136 -114.397057 100 427ft 0kts
11-Jan-20 11:34 32.865733 -114.396557 185 427ft 10kts
11-Jan-20 11:35 32.863872 -114.396993 189 427ft 12kts
11-Jan-20 11:36 32.862086 -114.396234 85 427ft 0kts
11-Jan-20 11:37 32.862091 -114.396153 85 427ft 0kts
11-Jan-20 11:37 32.862091 -114.396153 85 427ft 0kts
11-Jan-20 11:39 32.867220 -114.394662 12 427ft 89kts
11-Jan-20 11:40 32.898772 -114.404123 261 1860ft 159kts
11-Jan-20 11:40 32.869230 -114.419526 190 3797ft 155kts
11-Jan-20 11:42 32.810934 -114.431323 190 5003ft 216kts
11-Jan-20 11:42 32.759820 -114.447065 225 5417ft 220kts
11-Jan-20 11:44 32.760114 -114.512797 278 8491ft 157kts
11-Jan-20 11:45 32.764816 -114.564307 277 10479ft 155kts
11-Jan-20 11:45 32.767879 -114.606760 274 12086ft 153kts
11-Jan-20 11:46 32.767084 -114.658024 272 13847ft 156kts
11-Jan-20 11:47 32.766094 -114.710014 272 15501ft 158kts
11-Jan-20 11:48 32.765106 -114.762700 272 17033ft 161kts
11-Jan-20 11:49 32.764083 -114.816309 271 18459ft 163kts
11-Jan-20 11:50 32.763018 -114.870790 271 19802ft 165kts
11-Jan-20 11:51 32.761915 -114.926045 271 20999ft 168kts
11-Jan-20 11:52 32.760774 -114.981883 271 22122ft 170kts
11-Jan-20 11:53 32.759491 -115.044118 271 22240ft 204kts
11-Jan-20 11:54 32.758001 -115.114338 271 22234ft 218kts
11-Jan-20 11:55 32.756396 -115.187521 271 22233ft 223kts
11-Jan-20 11:56 32.754722 -115.261629 271 22232ft 225kts
11-Jan-20 11:57 32.752995 -115.336098 271 22231ft 226kts
11-Jan-20 11:58 32.751213 -115.410966 271 22229ft 226kts
11-Jan-20 11:59 32.749395 -115.485460 271 22226ft 226kts
11-Jan-20 12:00 32.749630 -115.560175 274 22225ft 226kts
11-Jan-20 12:01 32.751968 -115.634874 274 22235ft 226kts
11-Jan-20 12:02 32.753907 -115.709594 273 22243ft 226kts
11-Jan-20 12:03 32.755744 -115.784429 274 22243ft 226kts
11-Jan-20 12:04 32.757530 -115.859212 274 22243ft 226kts
11-Jan-20 12:05 32.759268 -115.934084 274 22242ft 227kts
11-Jan-20 12:06 32.760988 -116.009168 274 22242ft 226kts
11-Jan-20 12:07 32.779496 -116.077237 308 22244ft 226kts
11-Jan-20 12:08 32.819755 -116.134125 306 22243ft 224kts
11-Jan-20 12:09 32.860109 -116.191058 306 22223ft 224kts
11-Jan-20 12:10 32.900428 -116.247653 306 22224ft 223kts
11-Jan-20 12:11 32.940593 -116.304103 306 22225ft 223kts
11-Jan-20 12:12 32.980600 -116.360388 306 22227ft 222kts
11-Jan-20 12:13 33.020548 -116.416673 306 22230ft 222kts
11-Jan-20 12:14 33.060521 -116.473080 306 22213ft 222kts
11-Jan-20 12:15 33.100151 -116.529085 306 22241ft 221kts
11-Jan-20 12:16 33.138560 -116.586164 294 22244ft 218kts
11-Jan-20 12:17 33.149231 -116.657250 279 22247ft 218kts
11-Jan-20 12:18 33.158032 -116.728943 279 22256ft 219kts
11-Jan-20 12:19 33.166825 -116.800790 279 22259ft 219kts
11-Jan-20 12:20 33.175596 -116.872787 279 22260ft 219kts
11-Jan-20 12:21 33.184321 -116.944768 280 22262ft 218kts
11-Jan-20 12:22 33.192984 -117.016581 280 22264ft 218kts
11-Jan-20 12:23 33.201597 -117.088338 280 22265ft 218kts
11-Jan-20 12:24 33.210168 -117.160128 280 22266ft 218kts
11-Jan-20 12:25 33.218678 -117.231774 279 22266ft 218kts
11-Jan-20 12:26 33.227161 -117.303548 279 22267ft 218kts
11-Jan-20 12:27 33.235598 -117.375285 279 22265ft 218kts
11-Jan-20 12:28 33.244067 -117.446612 280 22271ft 217kts
11-Jan-20 12:29 33.252870 -117.518501 280 22272ft 217kts
11-Jan-20 12:30 33.261626 -117.589803 281 22271ft 217kts
11-Jan-20 12:31 33.272564 -117.660720 281 22271ft 216kts
11-Jan-20 12:32 33.283309 -117.731482 281 22270ft 216kts
11-Jan-20 12:33 33.293242 -117.802574 280 22273ft 216kts
11-Jan-20 12:34 33.302768 -117.873492 280 22272ft 216kts
11-Jan-20 12:35 33.312270 -117.944346 280 22270ft 216kts
11-Jan-20 12:36 33.321755 -118.015363 280 22267ft 215kts
11-Jan-20 12:37 33.331169 -118.086134 280 22265ft 215kts
11-Jan-20 12:38 33.340548 -118.156973 280 22263ft 215kts
11-Jan-20 12:39 33.349886 -118.227823 280 22261ft 215kts
11-Jan-20 12:40 33.359182 -118.298683 280 22258ft 215kts
11-Jan-20 12:41 33.368423 -118.369444 280 22255ft 215kts
11-Jan-20 12:42 33.386916 -118.436240 309 22256ft 218kts
11-Jan-20 12:43 33.425401 -118.491036 305 22255ft 217kts
11-Jan-20 12:44 33.463908 -118.546425 305 22258ft 217kts
11-Jan-20 12:45 33.502779 -118.601976 306 22259ft 216kts
11-Jan-20 12:46 33.541502 -118.657317 306 22262ft 216kts
11-Jan-20 12:47 33.580100 -118.712549 306 22264ft 216kts
11-Jan-20 12:48 33.619202 -118.768630 306 21753ft 231kts
11-Jan-20 12:49 33.662458 -118.830697 306 20265ft 248kts
11-Jan-20 12:50 33.707180 -118.894956 306 18820ft 251kts
11-Jan-20 12:51 33.751608 -118.958936 306 17524ft 249kts
11-Jan-20 12:52 33.801816 -119.015335 335 16224ft 261kts
11-Jan-20 12:53 33.875597 -119.023622 346 14938ft 266kts
11-Jan-20 12:54 33.949320 -119.031972 346 13582ft 266kts
11-Jan-20 12:55 34.022640 -119.039738 346 12181ft 255kts
11-Jan-20 12:56 34.087855 -119.046580 345 10845ft 222kts
11-Jan-20 12:57 34.130548 -119.087948 292 9662ft 203kts
11-Jan-20 12:58 34.156351 -119.149077 297 8675ft 207kts
11-Jan-20 12:59 34.183186 -119.211187 297 8033ft 200kts
11-Jan-20 13:00 34.206882 -119.268074 297 8011ft 182kts
11-Jan-20 13:01 34.229927 -119.324135 295 8015ft 190kts
11-Jan-20 13:02 34.250633 -119.383361 291 8013ft 193kts
11-Jan-20 13:03 34.269588 -119.444268 291 7758ft 203kts
11-Jan-20 13:04 34.300434 -119.501317 307 5478ft 197kts
11-Jan-20 13:05 34.327093 -119.554527 300 3987ft 146kts
11-Jan-20 13:06 34.348747 -119.591827 315 3194ft 150kts
11-Jan-20 13:07 34.384556 -119.631059 318 1908ft 177kts
11-Jan-20 13:08 34.414119 -119.671875 303 1832ft 151kts
11-Jan-20 13:09 34.431024 -119.719826 278 1694ft 155kts
11-Jan-20 13:10 34.428533 -119.773523 267 971ft 129kts
11-Jan-20 13:11 34.428501 -119.804867 264 461ft 79kts
11-Jan-20 13:12 34.427873 -119.835094 265 29ft 90kts
11-Jan-20 13:13 34.428176 -119.846110 44 15ft 4kts
11-Jan-20 13:14 34.428614 -119.845223 64 15ft 9kts
11-Jan-20 13:15 34.429026 -119.845304 246 15ft 0kts
11-Jan-20 13:16 34.429026 -119.845304 246 15ft 0kts
11-Jan-20 13:17 34.429026 -119.845304 246 15ft 0kts
11-Jan-20 13:18 34.429026 -119.845304 246 15ft 0kts
11-Jan-20 13:19 34.429026 -119.845304 246 15ft 0kts
11-Jan-20 13:20 34.429026 -119.845304 246 15ft 0kts
11-Jan-20 13:21 34.429026 -119.845304 246 15ft 0kts
11-Jan-20 13:22 34.429026 -119.845304 246 15ft 0kts
11-Jan-20 13:23 34.429026 -119.845304 246 15ft 0kts
11-Jan-20 13:24 34.429026 -119.845304 246 15ft 0kts
11-Jan-20 13:25 34.429026 -119.845304 246 15ft 0kts
11-Jan-20 13:26 34.429026 -119.845304 246 15ft 0kts
11-Jan-20 13:27 34.429026 -119.845304 246 15ft 0kts
11-Jan-20 13:28 34.429026 -119.845304 246 15ft 0kts

Navigation Log

Ident Type
Flight plan parsing failed, navigation log unavailable